Time;durP1;ratioP1;P1;durP2;ratioP2;P2;SDS_P1;SDS_P2;PMS_P1;PMS_P2;Temp;Humidity;BMP_temperature;BMP_pressure;BME280_temperature;BME280_humidity;BME280_pressure;Samples;Min_cycle;Max_cycle;Signal;HPM_P1;HPM_P2
2023/09/12 00:02:02;;;;;;;8.88;8.20;;;;;;;19.33;100.00;96325.88;5111013;28;20204;-58
2023/09/12 00:04:29;;;;;;;9.32;8.52;;;;;;;19.29;100.00;96316.59;5110340;28;20225;-59
2023/09/12 00:06:55;;;;;;;8.55;7.63;;;;;;;19.21;100.00;96312.25;5112679;28;20200;-60
2023/09/12 00:09:22;;;;;;;8.65;7.95;;;;;;;19.22;100.00;96319.28;5114834;28;20283;-60
2023/09/12 00:11:49;;;;;;;8.68;7.80;;;;;;;19.21;100.00;96311.41;5114646;28;20612;-58
2023/09/12 00:14:15;;;;;;;10.23;8.68;;;;;;;19.15;100.00;96306.88;5114868;28;20200;-58
2023/09/12 00:16:44;;;;;;;9.23;8.32;;;;;;;19.15;100.00;96318.44;5115100;28;20205;-59
2023/09/12 00:19:11;;;;;;;8.60;7.90;;;;;;;19.18;100.00;96311.84;5115318;28;20197;-59
2023/09/12 00:21:37;;;;;;;9.27;8.32;;;;;;;19.13;100.00;96303.59;5114851;28;20609;-59
2023/09/12 00:24:04;;;;;;;8.60;8.00;;;;;;;19.10;100.00;96310.16;5114747;28;20204;-58
2023/09/12 00:26:31;;;;;;;9.02;8.32;;;;;;;19.08;100.00;96312.25;5114847;28;20197;-59
2023/09/12 00:28:57;;;;;;;9.43;8.73;;;;;;;19.10;100.00;96314.69;5114288;28;20290;-60
2023/09/12 00:31:25;;;;;;;9.25;8.23;;;;;;;19.07;100.00;96309.75;5114468;28;20786;-58
2023/09/12 00:33:53;;;;;;;9.80;9.02;;;;;;;19.07;100.00;96315.94;5113990;28;20217;-59
2023/09/12 00:36:20;;;;;;;9.70;8.73;;;;;;;19.06;100.00;96308.13;5114247;28;20288;-59
2023/09/12 00:38:46;;;;;;;8.73;8.10;;;;;;;19.06;100.00;96310.81;5114005;28;20204;-58
2023/09/12 00:41:14;;;;;;;9.13;8.43;;;;;;;19.06;100.00;96318.84;5114205;28;20201;-59
2023/09/12 00:43:40;;;;;;;8.98;8.27;;;;;;;19.02;100.00;96306.88;5114886;28;20224;-59
2023/09/12 00:46:07;;;;;;;8.50;7.80;;;;;;;19.00;100.00;96312.41;5114871;28;20707;-60
2023/09/12 00:48:33;;;;;;;9.50;8.43;;;;;;;18.95;100.00;96303.34;5113906;28;20205;-58
2023/09/12 00:51:03;;;;;;;9.02;8.32;;;;;;;18.92;100.00;96314.47;5116257;28;20205;-59
2023/09/12 00:53:29;;;;;;;9.60;8.68;;;;;;;18.87;100.00;96304.38;5116819;28;20255;-60
2023/09/12 00:55:58;;;;;;;9.88;9.07;;;;;;;18.84;100.00;96305.59;5114072;28;20231;-58
2023/09/12 00:58:25;;;;;;;9.30;8.55;;;;;;;18.84;100.00;96310.97;5113481;28;20209;-58
2023/09/12 01:00:52;;;;;;;9.57;8.10;;;;;;;18.79;100.00;96309.91;5114200;28;20209;-59
2023/09/12 01:03:18;;;;;;;9.02;8.32;;;;;;;18.79;100.00;96316.09;5114138;28;20212;-59
2023/09/12 01:05:45;;;;;;;9.57;8.68;;;;;;;18.79;100.00;96323.28;5114054;28;20212;-59
2023/09/12 01:08:13;;;;;;;9.05;8.35;;;;;;;18.78;100.00;96319.78;5113733;28;20204;-59
2023/09/12 01:10:46;;;;;;;9.50;8.65;;;;;;;18.77;100.00;96323.50;5113247;28;20546;-59
2023/09/12 01:13:13;;;;;;;8.45;7.72;;;;;;;18.75;100.00;96322.88;5113012;28;20211;-59
2023/09/12 01:15:39;;;;;;;9.07;8.38;;;;;;;18.73;100.00;96324.09;5114053;28;20629;-59
2023/09/12 01:18:06;;;;;;;9.80;8.90;;;;;;;18.70;100.00;96330.72;5113463;28;20198;-59
2023/09/12 01:20:35;;;;;;;9.57;8.77;;;;;;;18.68;100.00;96332.75;5113986;28;20298;-59
2023/09/12 01:23:15;;;;;;;9.90;8.98;;;;;;;18.71;100.00;96326.97;5113388;28;20212;-59
2023/09/12 01:25:56;;;;;;;9.75;8.88;;;;;;;18.66;100.00;96337.50;5113907;28;20208;-60
2023/09/12 01:28:26;;;;;;;9.10;8.38;;;;;;;18.60;100.00;96340.94;5113284;28;20629;-59
2023/09/12 01:30:53;;;;;;;9.40;8.68;;;;;;;18.62;100.00;96338.91;5113358;28;20278;-60
2023/09/12 01:33:20;;;;;;;9.50;8.75;;;;;;;18.67;100.00;96335.63;5113254;28;20198;-59
2023/09/12 01:35:47;;;;;;;9.93;8.93;;;;;;;18.65;100.00;96327.78;5112896;28;20208;-60
2023/09/12 01:38:13;;;;;;;9.10;8.40;;;;;;;18.60;100.00;96335.59;5113396;28;20304;-59
2023/09/12 01:40:44;;;;;;;9.80;8.90;;;;;;;18.54;100.00;96331.03;5112142;28;20905;-60
2023/09/12 01:43:11;;;;;;;9.88;8.95;;;;;;;18.57;100.00;96336.00;5113206;28;20190;-60
2023/09/12 01:45:39;;;;;;;9.30;8.57;;;;;;;18.56;100.00;96344.25;5112629;28;20217;-59
2023/09/12 01:48:06;;;;;;;9.75;9.00;;;;;;;18.55;100.00;96346.09;5113349;28;20193;-58
2023/09/12 01:50:33;;;;;;;10.10;9.20;;;;;;;18.53;100.00;96334.72;5113224;28;20209;-59
2023/09/12 01:53:01;;;;;;;10.07;9.13;;;;;;;18.47;100.00;96338.19;5113008;28;20193;-60
2023/09/12 01:55:27;;;;;;;10.00;9.20;;;;;;;18.46;100.00;96335.72;5112530;28;20325;-59
2023/09/12 01:57:55;;;;;;;10.25;9.30;;;;;;;18.49;100.00;96340.69;5113186;28;20212;-60
2023/09/12 02:00:23;;;;;;;10.48;9.48;;;;;;;18.49;100.00;96341.50;5113276;28;20221;-60
2023/09/12 02:02:51;;;;;;;9.23;8.52;;;;;;;18.47;100.00;96340.88;5112924;28;20223;-58
2023/09/12 02:05:19;;;;;;;10.30;9.35;;;;;;;18.50;100.00;96336.94;5113236;28;20221;-59
2023/09/12 02:07:47;;;;;;;10.02;9.15;;;;;;;18.44;100.00;96335.91;5113390;28;21312;-58
2023/09/12 02:10:14;;;;;;;9.80;9.07;;;;;;;18.44;100.00;96348.47;5112267;28;20498;-60
2023/09/12 02:12:43;;;;;;;10.20;9.30;;;;;;;18.44;100.00;96343.94;5111785;28;20528;-60
2023/09/12 02:15:11;;;;;;;10.43;9.63;;;;;;;18.42;100.00;96346.00;5112970;28;20475;-59
2023/09/12 02:17:38;;;;;;;10.52;9.63;;;;;;;18.39;100.00;96349.88;5112847;28;20238;-59
2023/09/12 02:20:09;;;;;;;10.20;9.40;;;;;;;18.34;100.00;96349.69;5112849;28;20201;-59
2023/09/12 02:22:36;;;;;;;11.38;9.82;;;;;;;18.33;100.00;96344.50;5112120;28;20526;-58
2023/09/12 02:25:04;;;;;;;9.52;8.75;;;;;;;18.28;100.00;96342.41;5111908;28;20502;-59
2023/09/12 02:27:30;;;;;;;10.45;9.55;;;;;;;18.27;100.00;96346.13;5112648;28;20211;-59
2023/09/12 02:29:57;;;;;;;9.70;9.00;;;;;;;18.27;100.00;96342.63;5111702;28;20248;-59
2023/09/12 02:32:24;;;;;;;10.50;9.48;;;;;;;18.25;100.00;96348.16;5112985;28;20204;-58
2023/09/12 02:34:50;;;;;;;10.68;9.77;;;;;;;18.23;100.00;96344.03;5114327;28;20212;-59
2023/09/12 02:37:18;;;;;;;12.43;10.10;;;;;;;18.25;100.00;96344.66;5117042;28;20230;-59
2023/09/12 02:39:44;;;;;;;10.88;9.65;;;;;;;18.16;100.00;96338.66;5119195;28;20193;-58
2023/09/12 02:42:11;;;;;;;11.45;10.32;;;;;;;18.16;100.00;96351.22;5115612;28;20212;-58
2023/09/12 02:44:37;;;;;;;10.70;9.85;;;;;;;18.13;100.00;96340.91;5113330;28;20873;-59
2023/09/12 02:47:05;;;;;;;10.43;9.60;;;;;;;18.14;100.00;96345.25;5114411;28;20657;-58
2023/09/12 02:49:32;;;;;;;12.68;9.98;;;;;;;18.14;100.00;96346.03;5117271;28;20212;-58
2023/09/12 02:51:58;;;;;;;10.52;9.57;;;;;;;18.13;100.00;96340.91;5112371;28;20207;-58
2023/09/12 02:54:26;;;;;;;11.15;10.00;;;;;;;18.10;100.00;96342.13;5111871;28;20189;-59
2023/09/12 02:56:53;;;;;;;10.82;9.93;;;;;;;18.08;100.00;96341.47;5112020;28;20194;-60
2023/09/12 02:59:21;;;;;;;11.70;9.90;;;;;;;18.08;100.00;96346.00;5111198;28;20216;-59
2023/09/12 03:01:47;;;;;;;10.30;9.40;;;;;;;18.07;100.00;96347.03;5111250;28;20220;-59
2023/09/12 03:04:14;;;;;;;10.13;9.32;;;;;;;18.08;100.00;96348.69;5111787;28;20201;-59
2023/09/12 03:06:40;;;;;;;10.13;9.30;;;;;;;18.10;100.00;96346.66;5111468;28;20225;-59
2023/09/12 03:09:09;;;;;;;11.10;10.15;;;;;;;18.08;100.00;96346.00;5111068;28;20213;-59
2023/09/12 03:11:36;;;;;;;10.73;9.68;;;;;;;18.06;100.00;96342.72;5110818;28;20524;-59
2023/09/12 03:14:03;;;;;;;10.05;9.32;;;;;;;18.05;100.00;96335.69;5093484;28;20212;-59
2023/09/12 03:16:29;;;;;;;10.90;10.00;;;;;;;18.07;100.00;96352.38;5110893;28;20332;-58
2023/09/12 03:18:56;;;;;;;11.25;10.25;;;;;;;18.04;100.00;96337.53;5110876;28;20220;-59
2023/09/12 03:21:22;;;;;;;10.45;9.65;;;;;;;18.04;100.00;96334.88;5110660;28;20193;-59
2023/09/12 03:23:49;;;;;;;11.35;10.45;;;;;;;18.05;100.00;96341.88;5092615;28;20193;-58
2023/09/12 03:26:15;;;;;;;10.80;9.95;;;;;;;18.00;100.00;96348.81;5110511;28;20221;-59
2023/09/12 03:28:43;;;;;;;11.23;10.25;;;;;;;17.97;100.00;96334.00;5111417;28;20236;-60
2023/09/12 03:31:12;;;;;;;11.20;10.20;;;;;;;18.04;100.00;96331.38;5110819;28;20204;-59
2023/09/12 03:33:39;;;;;;;10.75;9.88;;;;;;;17.99;100.00;96337.31;5110875;28;20590;-59
2023/09/12 03:36:06;;;;;;;11.13;10.23;;;;;;;17.96;100.00;96329.66;5111564;28;20193;-59
2023/09/12 03:38:33;;;;;;;11.55;10.40;;;;;;;17.97;100.00;96333.16;5113629;28;20235;-59
2023/09/12 03:41:01;;;;;;;11.55;10.48;;;;;;;17.94;100.00;96333.56;5110508;28;20258;-59
2023/09/12 03:43:27;;;;;;;11.60;10.50;;;;;;;17.92;100.00;96330.28;5111733;28;20201;-59
2023/09/12 03:45:55;;;;;;;11.50;10.50;;;;;;;17.96;100.00;96327.00;5110809;28;20677;-59
2023/09/12 03:48:22;;;;;;;11.90;10.77;;;;;;;17.97;100.00;96325.16;5111096;28;20540;-58
2023/09/12 03:50:48;;;;;;;11.02;10.10;;;;;;;18.00;100.00;96322.91;5113001;28;20209;-60
2023/09/12 03:53:15;;;;;;;11.43;10.32;;;;;;;18.01;100.00;96323.72;5118391;28;20208;-59
2023/09/12 03:55:42;;;;;;;11.68;10.65;;;;;;;17.96;100.00;96316.28;5115700;28;20203;-59
2023/09/12 03:58:08;;;;;;;11.15;10.15;;;;;;;17.96;100.00;96320.84;5112129;28;20205;-59
2023/09/12 04:00:35;;;;;;;11.57;10.57;;;;;;;17.94;100.00;96317.53;5110642;28;20201;-60
2023/09/12 04:03:02;;;;;;;12.13;10.85;;;;;;;17.92;100.00;96320.41;5110835;28;20208;-59
2023/09/12 04:05:29;;;;;;;11.35;10.27;;;;;;;17.90;100.00;96320.59;5109857;28;20208;-59
2023/09/12 04:07:55;;;;;;;11.23;10.32;;;;;;;17.90;100.00;96319.75;5110743;28;20208;-59
2023/09/12 04:10:22;;;;;;;11.55;10.38;;;;;;;17.86;100.00;96324.69;5109850;28;20204;-59
2023/09/12 04:12:48;;;;;;;11.63;10.63;;;;;;;17.86;100.00;96327.34;5110267;28;20220;-59
2023/09/12 04:15:15;;;;;;;11.48;10.40;;;;;;;17.86;100.00;96327.34;5109681;28;20201;-58
2023/09/12 04:17:41;;;;;;;11.30;10.20;;;;;;;17.85;100.00;96322.22;5110580;28;20198;-59
2023/09/12 04:20:10;;;;;;;10.75;9.93;;;;;;;17.83;100.00;96325.06;5110783;28;20209;-60
2023/09/12 04:22:36;;;;;;;11.23;10.23;;;;;;;17.88;100.00;96322.66;5111335;28;20205;-58
2023/09/12 04:25:03;;;;;;;11.15;10.15;;;;;;;17.81;100.00;96316.44;5110252;28;20192;-59
2023/09/12 04:27:30;;;;;;;11.63;10.65;;;;;;;17.78;100.00;96316.00;5110768;28;20554;-59
2023/09/12 04:29:56;;;;;;;12.00;10.80;;;;;;;17.76;100.00;96326.88;5110427;28;20229;-58
2023/09/12 04:32:23;;;;;;;11.45;10.50;;;;;;;17.77;100.00;96328.53;5110875;28;20204;-59
2023/09/12 04:34:50;;;;;;;11.35;10.25;;;;;;;17.78;100.00;96332.03;5109774;28;20232;-59
2023/09/12 04:37:18;;;;;;;11.98;10.88;;;;;;;17.79;100.00;96331.81;5110578;28;20220;-59
2023/09/12 04:39:46;;;;;;;11.05;10.25;;;;;;;17.77;100.00;96339.22;5110173;28;20204;-59
2023/09/12 04:42:12;;;;;;;11.35;10.32;;;;;;;17.76;100.00;96339.41;5110751;28;20526;-58
2023/09/12 04:44:40;;;;;;;11.85;10.85;;;;;;;17.75;100.00;96341.25;5112507;28;20197;-58
2023/09/12 04:47:09;;;;;;;12.25;11.10;;;;;;;17.75;100.00;96333.25;5113724;28;20213;-57
2023/09/12 04:49:35;;;;;;;12.02;10.95;;;;;;;17.73;100.00;96337.97;5112662;28;20213;-57
2023/09/12 04:52:02;;;;;;;11.32;10.32;;;;;;;17.74;100.00;96339.63;5111331;28;20193;-58
2023/09/12 04:54:31;;;;;;;12.70;11.40;;;;;;;17.75;100.00;96335.91;5118621;28;20212;-58
2023/09/12 04:56:57;;;;;;;12.10;11.02;;;;;;;17.77;100.00;96343.75;5115385;28;20221;-59
2023/09/12 04:59:24;;;;;;;11.45;10.40;;;;;;;17.76;100.00;96345.59;5115330;28;20197;-58
2023/09/12 05:01:51;;;;;;;10.90;9.95;;;;;;;17.76;100.00;96345.59;5114894;28;20205;-58
2023/09/12 05:04:17;;;;;;;11.77;10.63;;;;;;;17.77;100.00;96347.25;5114810;28;20193;-58
2023/09/12 05:06:44;;;;;;;12.05;10.98;;;;;;;17.81;100.00;96350.38;5113821;28;20286;-59
2023/09/12 05:09:10;;;;;;;11.68;10.68;;;;;;;17.79;100.00;96353.22;5112209;28;20660;-62
2023/09/12 05:11:40;;;;;;;12.32;11.30;;;;;;;17.79;100.00;96350.56;5116319;28;20197;-59
2023/09/12 05:14:07;;;;;;;11.57;10.68;;;;;;;17.80;100.00;96357.56;5113979;28;20304;-58
2023/09/12 05:16:33;;;;;;;11.60;10.70;;;;;;;17.82;100.00;96352.84;5113591;28;20196;-59
2023/09/12 05:19:00;;;;;;;12.00;10.88;;;;;;;17.87;100.00;96349.59;5114341;28;20215;-58
2023/09/12 05:21:26;;;;;;;11.88;10.68;;;;;;;17.87;100.00;96349.59;5114624;28;20205;-58
2023/09/12 05:23:53;;;;;;;11.90;10.90;;;;;;;17.88;100.00;96346.72;5114367;28;20211;-57
2023/09/12 05:26:20;;;;;;;11.57;10.57;;;;;;;17.96;100.00;96345.72;5114335;28;20236;-58
2023/09/12 05:28:48;;;;;;;11.98;10.88;;;;;;;18.02;100.00;96349.47;5113892;28;20233;-57
2023/09/12 05:31:14;;;;;;;12.02;10.95;;;;;;;18.03;100.00;96348.47;5114145;28;20205;-57
2023/09/12 05:33:41;;;;;;;13.10;11.90;;;;;;;18.08;100.00;96348.69;5114221;28;20209;-57
2023/09/12 05:36:08;;;;;;;12.15;11.15;;;;;;;18.10;100.00;96349.34;5113088;28;20288;-59
2023/09/12 05:38:38;;;;;;;12.55;11.45;;;;;;;18.16;100.00;96353.88;5117861;28;20197;-57
2023/09/12 05:41:05;;;;;;;11.93;10.98;;;;;;;18.19;100.00;96342.78;5116017;28;20198;-57
2023/09/12 05:43:31;;;;;;;12.07;10.88;;;;;;;18.22;100.00;96359.28;5113497;28;20205;-57
2023/09/12 05:45:59;;;;;;;12.38;11.32;;;;;;;18.24;100.00;96356.41;5094963;28;20197;-59
2023/09/12 05:48:26;;;;;;;12.07;10.98;;;;;;;18.25;100.00;96363.41;5112089;28;20630;-59
2023/09/12 05:50:52;;;;;;;12.15;11.13;;;;;;;18.28;100.00;96349.66;5113564;28;20208;-58
2023/09/12 05:53:19;;;;;;;12.40;11.40;;;;;;;18.34;100.00;96362.22;5113822;28;21263;-57
2023/09/12 05:55:45;;;;;;;12.25;11.07;;;;;;;18.39;100.00;96370.47;5112658;28;20774;-57
2023/09/12 05:58:12;;;;;;;12.13;11.10;;;;;;;18.46;100.00;96375.88;5113771;28;20218;-57
2023/09/12 06:00:38;;;;;;;11.85;10.88;;;;;;;18.50;100.00;96371.75;5112683;28;20211;-57
2023/09/12 06:03:07;;;;;;;12.32;11.32;;;;;;;18.56;100.00;96371.03;5113262;28;20208;-58
2023/09/12 06:05:34;;;;;;;12.80;11.70;;;;;;;18.65;100.00;96364.47;5093905;28;20217;-58
2023/09/12 06:08:00;;;;;;;12.57;11.43;;;;;;;18.68;100.00;96370.25;5113164;28;20240;-58
2023/09/12 06:10:27;;;;;;;12.18;11.18;;;;;;;18.75;100.00;96373.78;5111222;28;20212;-58
2023/09/12 06:12:54;;;;;;;12.80;11.73;;;;;;;18.82;100.00;96373.78;5112375;28;20280;-58
2023/09/12 06:15:20;;;;;;;12.68;11.65;;;;;;;18.95;100.00;96365.00;5112973;28;20216;-59
2023/09/12 06:17:47;;;;;;;12.13;11.07;;;;;;;19.08;100.00;96375.75;5112785;28;20204;-59
2023/09/12 06:20:15;;;;;;;13.38;12.15;;;;;;;19.14;100.00;96372.25;5112520;28;20216;-58
2023/09/12 06:22:43;;;;;;;14.52;13.23;;;;;;;19.33;100.00;96376.81;5112432;28;20212;-59
2023/09/12 06:25:09;;;;;;;14.55;13.05;;;;;;;19.92;100.00;96376.88;5094356;28;20197;-58
2023/09/12 06:27:37;;;;;;;14.05;12.82;;;;;;;20.77;100.00;96374.03;5117908;28;20225;-57
2023/09/12 06:30:04;;;;;;;13.02;12.00;;;;;;;21.76;100.00;96371.59;5116914;28;20233;-59
2023/09/12 06:32:31;;;;;;;13.30;12.13;;;;;;;22.56;100.00;96372.53;5117131;28;20209;-58
2023/09/12 06:34:57;;;;;;;12.85;11.57;;;;;;;23.20;100.00;96379.22;5114883;28;20208;-58
2023/09/12 06:37:25;;;;;;;19.52;11.70;;;;;;;23.64;100.00;96373.41;5112205;28;20216;-58
2023/09/12 06:39:52;;;;;;;12.90;11.75;;;;;;;23.97;100.00;96366.66;5111696;28;20197;-58
2023/09/12 06:42:21;;;;;;;12.35;11.25;;;;;;;24.58;97.26;96363.50;5112176;28;20204;-58
2023/09/12 06:44:47;;;;;;;11.23;10.20;;;;;;;24.86;96.96;96362.78;5112705;28;20209;-58
2023/09/12 06:47:14;;;;;;;11.48;10.30;;;;;;;25.30;91.79;96372.84;5112102;28;20217;-57
2023/09/12 06:49:40;;;;;;;11.60;10.40;;;;;;;25.49;92.80;96360.75;5112970;28;20323;-59
2023/09/12 06:52:07;;;;;;;12.18;10.93;;;;;;;25.09;92.96;96360.00;5114436;28;20519;-61
2023/09/12 06:54:36;;;;;;;13.02;10.63;;;;;;;24.85;93.18;96361.13;5116165;28;20212;-58
2023/09/12 06:57:03;;;;;;;13.77;10.10;;;;;;;25.46;91.43;96372.09;5112425;28;20216;-58
2023/09/12 06:59:30;;;;;;;12.63;11.40;;;;;;;25.75;87.39;96367.50;5112179;28;20197;-58
2023/09/12 07:01:56;;;;;;;11.07;10.07;;;;;;;25.45;93.41;96364.19;5112126;28;20215;-58
2023/09/12 07:04:23;;;;;;;40.83;25.33;;;;;;;25.11;93.02;96374.94;5094372;28;20197;-58
2023/09/12 07:06:51;;;;;;;15.40;11.30;;;;;;;24.94;95.53;96368.63;5111442;28;20217;-57
2023/09/12 07:09:19;;;;;;;42.67;13.60;;;;;;;25.16;96.43;96374.19;5110817;28;20652;-57
2023/09/12 07:11:48;;;;;;;116.30;26.27;;;;;;;24.91;95.71;96379.09;5112044;28;20228;-58
2023/09/12 07:14:15;;;;;;;12.35;11.10;;;;;;;24.36;98.55;96376.81;5111125;28;20201;-58
2023/09/12 07:16:41;;;;;;;17.88;11.93;;;;;;;24.30;99.87;96383.16;5111851;28;20212;-59
2023/09/12 07:19:07;;;;;;;13.25;11.10;;;;;;;24.06;100.00;96386.84;5111179;28;20204;-58
2023/09/12 07:21:34;;;;;;;12.07;10.73;;;;;;;23.88;100.00;96389.69;5111570;28;20217;-59
2023/09/12 07:24:00;;;;;;;37.22;20.45;;;;;;;23.66;100.00;96381.28;5111292;28;20207;-58
2023/09/12 07:26:27;;;;;;;182.70;45.38;;;;;;;23.46;100.00;96386.97;5111815;28;20201;-58
2023/09/12 07:28:55;;;;;;;65.43;25.00;;;;;;;23.43;100.00;96394.72;5111052;28;20236;-58
2023/09/12 07:31:22;;;;;;;16.88;12.65;;;;;;;23.40;100.00;96393.25;5110757;28;20216;-61
2023/09/12 07:33:49;;;;;;;17.65;11.35;;;;;;;23.38;100.00;96389.97;5092657;28;20243;-58
2023/09/12 07:36:15;;;;;;;12.20;11.10;;;;;;;23.47;100.00;96388.63;5110954;28;20205;-59
2023/09/12 07:38:45;;;;;;;23.98;11.57;;;;;;;23.65;100.00;96391.28;5111575;28;20212;-57
2023/09/12 07:41:11;;;;;;;12.98;11.25;;;;;;;23.69;100.00;96389.75;5111427;28;20220;-60
2023/09/12 07:43:38;;;;;;;11.30;10.15;;;;;;;23.78;100.00;96388.34;5111711;28;20200;-59
2023/09/12 07:46:06;;;;;;;12.00;10.80;;;;;;;23.84;100.00;96377.69;5127769;28;20193;-58
2023/09/12 07:48:33;;;;;;;12.48;11.18;;;;;;;23.90;100.00;96384.84;5131628;28;20225;-59
2023/09/12 07:50:59;;;;;;;11.85;10.75;;;;;;;23.86;100.00;96376.41;5123723;28;20628;-59
2023/09/12 07:53:25;;;;;;;12.05;10.27;;;;;;;23.76;100.00;96381.56;5110743;28;20618;-58
2023/09/12 07:55:52;;;;;;;11.05;9.85;;;;;;;23.77;100.00;96384.00;5110853;28;20234;-58
2023/09/12 07:58:19;;;;;;;10.77;9.95;;;;;;;23.85;100.00;96379.31;5111510;28;20204;-59
2023/09/12 08:00:48;;;;;;;10.35;9.50;;;;;;;23.85;100.00;96384.72;5110621;28;20326;-59
2023/09/12 08:03:16;;;;;;;10.75;9.75;;;;;;;23.86;100.00;96397.19;5110802;28;20696;-58
2023/09/12 08:05:42;;;;;;;11.23;10.13;;;;;;;23.87;100.00;96398.84;5110700;28;20200;-59
2023/09/12 08:08:09;;;;;;;10.88;9.98;;;;;;;23.88;100.00;96403.19;5110733;28;20224;-59
2023/09/12 08:10:36;;;;;;;11.30;10.40;;;;;;;23.88;100.00;96403.97;5110292;28;20633;-58
2023/09/12 08:13:02;;;;;;;11.05;10.18;;;;;;;23.97;100.00;96394.50;5110540;28;20204;-59
2023/09/12 08:15:30;;;;;;;10.93;9.82;;;;;;;24.06;100.00;96392.25;5110114;28;20589;-59
2023/09/12 08:17:57;;;;;;;11.45;10.32;;;;;;;24.08;100.00;96390.16;5110526;28;20197;-57
2023/09/12 08:20:25;;;;;;;11.70;10.45;;;;;;;24.07;100.00;96391.22;5110363;28;20205;-58
2023/09/12 08:22:52;;;;;;;11.05;9.95;;;;;;;24.12;100.00;96383.25;5110471;28;20591;-59
2023/09/12 08:25:18;;;;;;;10.48;9.48;;;;;;;24.18;100.00;96382.34;5109870;28;20629;-58
2023/09/12 08:27:45;;;;;;;12.50;9.65;;;;;;;24.30;100.00;96385.88;5112661;28;20213;-57
2023/09/12 08:30:13;;;;;;;11.00;10.00;;;;;;;24.48;100.00;96383.00;5114311;28;20220;-59
2023/09/12 08:32:43;;;;;;;11.02;9.98;;;;;;;24.69;100.00;96387.00;5113954;28;20189;-58
2023/09/12 08:35:10;;;;;;;11.25;10.02;;;;;;;24.91;99.84;96373.69;5114311;28;20254;-58
2023/09/12 08:37:38;;;;;;;10.40;9.32;;;;;;;25.15;98.83;96378.00;5114434;28;20205;-58
2023/09/12 08:40:10;;;;;;;12.00;10.00;;;;;;;25.38;97.09;96371.63;5114485;28;20621;-58
2023/09/12 08:42:41;;;;;;;10.40;9.48;;;;;;;25.61;96.78;96374.28;5114297;28;20641;-58
2023/09/12 08:45:14;;;;;;;12.45;9.25;;;;;;;25.73;94.24;96372.31;5114899;28;20189;-58
2023/09/12 08:47:42;;;;;;;9.52;8.73;;;;;;;25.95;93.41;96365.09;5114768;28;20209;-58
2023/09/12 08:50:11;;;;;;;10.48;9.45;;;;;;;26.07;94.11;96367.75;5114578;28;20853;-58
2023/09/12 08:52:39;;;;;;;10.10;9.27;;;;;;;26.13;93.78;96378.41;5095964;28;20247;-59
2023/09/12 08:55:08;;;;;;;10.27;9.27;;;;;;;26.42;91.54;96373.75;5114537;28;20626;-58
2023/09/12 08:57:37;;;;;;;10.73;9.52;;;;;;;26.61;90.85;96374.25;5116117;28;20211;-59
2023/09/12 09:00:05;;;;;;;11.20;9.23;;;;;;;26.81;87.00;96368.31;5120053;28;20612;-58
2023/09/12 09:02:33;;;;;;;9.32;8.45;;;;;;;27.07;89.15;96375.69;5124576;28;20646;-59
2023/09/12 09:04:59;;;;;;;10.80;9.25;;;;;;;27.17;87.57;96362.28;5124989;28;20235;-58
2023/09/12 09:07:26;;;;;;;8.85;8.15;;;;;;;27.50;85.71;96361.28;5115985;28;20288;-58
2023/09/12 09:09:55;;;;;;;10.00;9.10;;;;;;;27.62;84.20;96362.78;5114357;28;20205;-59
2023/09/12 09:12:22;;;;;;;9.63;8.70;;;;;;;27.74;82.76;96356.38;5096166;28;20544;-59
2023/09/12 09:14:48;;;;;;;11.60;9.10;;;;;;;27.62;82.74;96349.19;5114288;28;20209;-59
2023/09/12 09:17:17;;;;;;;9.32;8.43;;;;;;;27.79;79.95;96359.94;5114350;28;20205;-60
2023/09/12 09:19:45;;;;;;;9.75;8.77;;;;;;;27.89;80.24;96361.91;5113246;28;20202;-59
2023/09/12 09:22:12;;;;;;;9.38;8.52;;;;;;;28.04;80.72;96349.28;5113977;28;20197;-59
2023/09/12 09:24:38;;;;;;;9.13;8.23;;;;;;;28.25;78.75;96353.00;5113715;28;20210;-59
2023/09/12 09:27:06;;;;;;;9.27;8.43;;;;;;;28.59;81.57;96354.28;5114177;28;20213;-59
2023/09/12 09:29:33;;;;;;;10.27;8.95;;;;;;;28.62;75.56;96347.53;5113346;28;20228;-59
2023/09/12 09:32:01;;;;;;;9.43;8.55;;;;;;;28.79;77.17;96348.19;5114102;28;20229;-60
2023/09/12 09:34:29;;;;;;;8.55;7.85;;;;;;;29.05;75.47;96352.63;5113361;28;20301;-58
2023/09/12 09:36:57;;;;;;;9.02;8.25;;;;;;;29.19;77.30;96347.53;5113887;28;20207;-58
2023/09/12 09:39:25;;;;;;;8.85;8.02;;;;;;;28.93;71.70;96343.91;5111353;28;20274;-58
2023/09/12 09:41:54;;;;;;;10.27;8.43;;;;;;;28.72;75.12;96347.59;5113948;28;20212;-59
2023/09/12 09:44:25;;;;;;;9.65;8.75;;;;;;;28.63;74.59;96349.97;5112260;28;20250;-58
2023/09/12 09:46:54;;;;;;;8.73;8.05;;;;;;;28.69;75.58;96353.59;5113556;28;20288;-58
2023/09/12 09:49:22;;;;;;;8.80;8.00;;;;;;;28.93;76.40;96354.78;5113337;28;20217;-59
2023/09/12 09:51:48;;;;;;;8.70;7.85;;;;;;;29.02;75.38;96358.63;5113761;28;20204;-59
2023/09/12 09:54:15;;;;;;;9.18;8.27;;;;;;;29.24;71.27;96353.00;5112632;28;20193;-58
2023/09/12 09:56:48;;;;;;;9.10;7.45;;;;;;;29.50;72.47;96343.00;5112953;28;20212;-60
2023/09/12 09:59:16;;;;;;;9.02;8.18;;;;;;;29.73;71.18;96342.47;5112501;28;20272;-59
2023/09/12 10:01:46;;;;;;;8.18;7.57;;;;;;;29.86;73.82;96338.47;5113352;28;20221;-58
2023/09/12 10:04:14;;;;;;;9.07;8.38;;;;;;;29.96;70.07;96335.72;5112734;28;20628;-59
2023/09/12 10:06:44;;;;;;;9.57;8.35;;;;;;;29.90;68.34;96334.09;5113108;28;20212;-59
2023/09/12 10:09:12;;;;;;;11.75;7.95;;;;;;;29.90;67.64;96331.38;5112962;28;20228;-58
2023/09/12 10:11:39;;;;;;;9.40;8.43;;;;;;;29.99;68.13;96327.81;5113083;28;20254;-58
2023/09/12 10:14:06;;;;;;;8.80;8.02;;;;;;;29.77;66.89;96329.13;5112353;28;20203;-59
2023/09/12 10:16:34;;;;;;;10.65;8.88;;;;;;;29.82;66.25;96337.31;5112521;28;20541;-60
2023/09/12 10:19:20;;;;;;;8.93;8.13;;;;;;;29.72;67.95;96329.16;5112648;28;20227;-59
2023/09/12 10:21:49;;;;;;;11.30;8.20;;;;;;;29.67;68.05;96320.94;5112185;28;20205;-59
2023/09/12 10:24:16;;;;;;;9.15;8.40;;;;;;;29.84;68.40;96326.97;5112198;28;20201;-60
2023/09/12 10:26:45;;;;;;;8.80;7.88;;;;;;;30.21;68.76;96327.53;5112593;28;20220;-59
2023/09/12 10:29:13;;;;;;;8.80;8.02;;;;;;;30.41;64.79;96330.25;5111976;28;20717;-59
2023/09/12 10:31:40;;;;;;;9.07;8.38;;;;;;;29.93;64.64;96320.75;5111841;28;20213;-59
2023/09/12 10:34:09;;;;;;;8.80;8.10;;;;;;;30.18;66.10;96317.19;5111729;28;20542;-59
2023/09/12 10:36:37;;;;;;;10.68;8.65;;;;;;;30.05;68.33;96312.25;5112426;28;20203;-58
2023/09/12 10:39:05;;;;;;;8.68;7.97;;;;;;;30.17;67.06;96312.81;5111695;28;20556;-59
2023/09/12 10:41:33;;;;;;;9.00;8.30;;;;;;;30.45;68.01;96308.69;5112402;28;20205;-59
2023/09/12 10:44:00;;;;;;;9.15;8.45;;;;;;;30.47;68.57;96304.56;5111259;28;20216;-59
2023/09/12 10:46:26;;;;;;;8.70;8.00;;;;;;;30.69;67.60;96306.16;5111695;28;20212;-61
2023/09/12 10:48:54;;;;;;;9.05;8.27;;;;;;;30.73;64.84;96297.13;5111308;28;20217;-59
2023/09/12 10:51:22;;;;;;;8.93;8.32;;;;;;;30.86;66.54;96303.91;5111909;28;20189;-59
2023/09/12 10:53:50;;;;;;;9.20;8.30;;;;;;;30.87;67.58;96291.88;5111484;28;20209;-58
2023/09/12 10:56:19;;;;;;;8.98;8.20;;;;;;;30.90;67.53;96291.31;5111982;28;20220;-60
2023/09/12 10:59:13;;;;;;;8.85;8.15;;;;;;;30.77;65.49;96286.47;5111688;28;20220;-59
2023/09/12 11:01:41;;;;;;;9.57;8.77;;;;;;;30.69;67.53;96289.78;5101424;28;21419;-59
2023/09/12 11:04:37;;;;;;;9.65;8.82;;;;;;;30.73;65.47;96279.94;5110806;28;20205;-60
2023/09/12 11:07:31;;;;;;;9.02;8.25;;;;;;;30.89;66.46;96282.31;5111739;28;20219;-59
2023/09/12 11:10:24;;;;;;;9.32;8.43;;;;;;;31.04;65.81;96282.28;5111183;28;20507;-60
2023/09/12 11:12:52;;;;;;;9.07;8.25;;;;;;;31.26;62.17;96284.63;5111795;28;20189;-59
2023/09/12 11:15:19;;;;;;;9.05;8.23;;;;;;;31.37;65.27;96274.44;5111365;28;20193;-58
2023/09/12 11:17:47;;;;;;;9.68;8.68;;;;;;;31.42;65.90;96272.50;5111144;28;20613;-58
2023/09/12 11:20:15;;;;;;;10.43;8.93;;;;;;;31.44;63.52;96278.50;5110993;28;20201;-60
2023/09/12 11:22:44;;;;;;;9.25;8.40;;;;;;;31.54;63.35;96275.72;5110844;28;20205;-58